Welaka, Florida
Current Conditions -  °F | °C
As of 7:35 AM on Sunday 21 Dec 2014 (Local Time) from K28J Reporting Station
Haze Haze  
Wind Chill: 59°   Ceiling: 300
Heat Index: 59°   Visibility: 1.2mi
Dew Point: 59°   Wind: 5mph
Humidity: 100%   Direction: 30°NNE
Pressure: 30.11"   Gusts: NA
Location:  29.48°N, 81.67°W
Report Text: K28J 211235Z AUTO 03004KT 1 1/4SM BR OVC003 15/15 A3011 RMK AO2
Loading
Personal Weather Stations






























Interactive Weather Map New forecast layout! Learn more

10-Day Weather Forecast

Advertisements
Track Severe Weather on mobile